Time;durP1;ratioP1;P1;durP2;ratioP2;P2;SDS_P1;SDS_P2;PMS_P1;PMS_P2;Temp;Humidity;BMP_temperature;BMP_pressure;BME280_temperature;BME280_humidity;BME280_pressure;Samples;Min_cycle;Max_cycle;Signal;HPM_P1;HPM_P2
2023/03/03 00:00:22;;;;;;;48.47;27.25;;;;;;;;;;5061527;28;20256;-69
2023/03/03 00:02:50;;;;;;;55.13;28.63;;;;;;;;;;5060710;28;20256;-69
2023/03/03 00:05:18;;;;;;;63.33;30.95;;;;;;;;;;5061234;28;20322;-69
2023/03/03 00:07:48;;;;;;;49.33;27.77;;;;;;;;;;5061773;28;20260;-69
2023/03/03 00:10:17;;;;;;;51.20;27.67;;;;;;;;;;5061763;28;20264;-69
2023/03/03 00:12:47;;;;;;;47.50;25.75;;;;;;;;;;5060062;28;20291;-69
2023/03/03 00:15:16;;;;;;;53.92;25.27;;;;;;;;;;5060147;28;20607;-69
2023/03/03 00:17:44;;;;;;;53.22;26.80;;;;;;;;;;5062456;28;20378;-69
2023/03/03 00:20:36;;;;;;;51.40;27.58;;;;;;;;;;5062744;28;20283;-72
2023/03/03 00:23:14;;;;;;;56.35;27.83;;;;;;;;;;5047368;28;20662;-69
2023/03/03 00:25:45;;;;;;;49.00;27.10;;;;;;;;;;5062011;28;20275;-69
2023/03/03 00:28:20;;;;;;;50.15;27.30;;;;;;;;;;5060330;28;20338;-69
2023/03/03 00:30:48;;;;;;;48.83;25.60;;;;;;;;;;5059300;28;20296;-69
2023/03/03 00:33:23;;;;;;;55.67;27.25;;;;;;;;;;5059485;28;20283;-69
2023/03/03 00:35:51;;;;;;;56.00;29.27;;;;;;;;;;5058486;28;20676;-69
2023/03/03 00:38:19;;;;;;;47.92;25.58;;;;;;;;;;5058673;28;20288;-69
2023/03/03 00:40:49;;;;;;;51.53;28.67;;;;;;;;;;5059864;28;20636;-69
2023/03/03 00:43:22;;;;;;;47.55;26.45;;;;;;;;;;5061846;28;20264;-68
2023/03/03 00:51:54;;;;;;;47.22;25.27;;;;;;;;;;5058052;28;20212;-69
2023/03/03 00:54:22;;;;;;;48.28;24.98;;;;;;;;;;5059667;28;20256;-70
2023/03/03 00:56:52;;;;;;;51.28;26.05;;;;;;;;;;5060141;28;20551;-70
2023/03/03 00:59:21;;;;;;;48.20;24.15;;;;;;;;;;5056926;28;20708;-69
2023/03/03 01:01:49;;;;;;;55.92;26.02;;;;;;;;;;5061159;28;20208;-70
2023/03/03 01:04:18;;;;;;;43.88;25.08;;;;;;;;;;5064468;28;20573;-70
2023/03/03 01:07:05;;;;;;;46.42;26.42;;;;;;;;;;5067048;28;20240;-69
2023/03/03 01:09:42;;;;;;;49.25;25.85;;;;;;;;;;5060673;28;20639;-69
2023/03/03 01:12:13;;;;;;;51.80;24.27;;;;;;;;;;5064141;28;20185;-69
2023/03/03 01:14:41;;;;;;;43.25;23.80;;;;;;;;;;5059084;28;20508;-69
2023/03/03 01:17:15;;;;;;;48.28;25.60;;;;;;;;;;5062160;28;20557;-69
2023/03/03 01:19:46;;;;;;;48.00;24.10;;;;;;;;;;5065624;28;20342;-69
2023/03/03 01:22:15;;;;;;;43.90;24.50;;;;;;;;;;5063278;28;20206;-68
2023/03/03 01:24:56;;;;;;;51.42;24.45;;;;;;;;;;5063552;28;20205;-69
2023/03/03 01:27:39;;;;;;;44.55;25.00;;;;;;;;;;5063568;28;20279;-68
2023/03/03 01:30:11;;;;;;;42.22;24.25;;;;;;;;;;5057361;28;20232;-69
2023/03/03 01:32:46;;;;;;;48.97;25.20;;;;;;;;;;5063690;28;20755;-69
2023/03/03 01:35:17;;;;;;;44.15;25.13;;;;;;;;;;5062221;28;20288;-70
2023/03/03 01:37:47;;;;;;;45.63;25.33;;;;;;;;;;5063634;28;20204;-69
2023/03/03 01:40:29;;;;;;;;;;;;;;;;;;;;;
2023/03/03 01:43:10;;;;;;;50.08;25.85;;;;;;;;;;5043841;28;20205;-69
2023/03/03 01:46:09;;;;;;;49.53;23.67;;;;;;;;;;5062504;28;20295;-68
2023/03/03 01:48:48;;;;;;;54.88;27.02;;;;;;;;;;5059489;28;20274;-68
2023/03/03 01:51:24;;;;;;;55.75;26.92;;;;;;;;;;5052100;28;20216;-69
2023/03/03 01:53:59;;;;;;;51.35;26.08;;;;;;;;;;5056401;28;20291;-69
2023/03/03 01:56:32;;;;;;;48.03;25.08;;;;;;;;;;5058641;28;20291;-69
2023/03/03 01:59:12;;;;;;;50.13;24.67;;;;;;;;;;5059123;28;20283;-69
2023/03/03 02:01:48;;;;;;;54.25;26.23;;;;;;;;;;5060230;28;20193;-69
2023/03/03 02:04:21;;;;;;;49.13;24.60;;;;;;;;;;5057425;28;20284;-69
2023/03/03 02:06:52;;;;;;;51.03;23.58;;;;;;;;;;5058848;28;20267;-69
2023/03/03 02:09:26;;;;;;;53.28;24.70;;;;;;;;;;5059158;28;20271;-70
2023/03/03 02:12:00;;;;;;;44.20;24.60;;;;;;;;;;5058534;28;20193;-68
2023/03/03 02:15:09;;;;;;;48.15;27.27;;;;;;;;;;5059569;28;20260;-68
2023/03/03 02:17:40;;;;;;;54.78;28.25;;;;;;;;;;5054589;28;20210;-68
2023/03/03 02:20:18;;;;;;;55.70;27.35;;;;;;;;;;5058512;28;20568;-67
2023/03/03 02:22:51;;;;;;;45.85;25.95;;;;;;;;;;5057747;28;20303;-68
2023/03/03 02:25:24;;;;;;;45.80;24.38;;;;;;;;;;5074791;28;20338;-68
2023/03/03 02:27:59;;;;;;;48.88;25.50;;;;;;;;;;5054622;28;20256;-68
2023/03/03 02:30:29;;;;;;;52.17;24.65;;;;;;;;;;5060252;28;20774;-68
2023/03/03 02:33:00;;;;;;;52.20;26.58;;;;;;;;;;5072234;28;20196;-68
2023/03/03 02:35:32;;;;;;;45.30;25.00;;;;;;;;;;5055501;28;20240;-68
2023/03/03 02:38:15;;;;;;;45.85;25.10;;;;;;;;;;5054365;28;20208;-70
2023/03/03 02:40:50;;;;;;;46.38;24.25;;;;;;;;;;5057363;28;20199;-69
2023/03/03 02:43:22;;;;;;;39.58;22.75;;;;;;;;;;5055415;28;20273;-69
2023/03/03 02:49:41;;;;;;;44.92;23.35;;;;;;;;;;5055927;28;20223;-69
2023/03/03 02:52:36;;;;;;;43.97;24.45;;;;;;;;;;5031618;28;20207;-69
2023/03/03 02:55:57;;;;;;;55.85;27.08;;;;;;;;;;5055309;28;20505;-69
2023/03/03 02:58:45;;;;;;;48.55;25.73;;;;;;;;;;5057372;28;20291;-68
2023/03/03 03:01:18;;;;;;;43.03;23.50;;;;;;;;;;5072295;28;20347;-68
2023/03/03 03:03:50;;;;;;;50.80;23.65;;;;;;;;;;5047352;28;20329;-68
2023/03/03 03:06:32;;;;;;;52.60;25.08;;;;;;;;;;5055847;28;20212;-68
2023/03/03 03:12:46;;;;;;;115.75;48.13;;;;;;;;;;5056589;28;20204;-68
2023/03/03 03:15:25;;;;;;;80.93;44.13;;;;;;;;;;5054674;28;20305;-68
2023/03/03 03:21:14;;;;;;;42.33;24.10;;;;;;;;;;5057336;28;20204;-68
2023/03/03 03:23:54;;;;;;;47.88;23.55;;;;;;;;;;5040187;28;20231;-68
2023/03/03 03:26:36;;;;;;;45.60;23.92;;;;;;;;;;5063464;28;20188;-69
2023/03/03 03:29:31;;;;;;;46.95;26.02;;;;;;;;;;5064854;28;20229;-69
2023/03/03 03:32:32;;;;;;;50.08;24.63;;;;;;;;;;5053191;28;20257;-69
2023/03/03 03:35:16;;;;;;;55.42;25.13;;;;;;;;;;5059825;28;20204;-70
2023/03/03 03:37:48;;;;;;;44.75;24.23;;;;;;;;;;5063530;28;20215;-70
2023/03/03 03:40:44;;;;;;;48.30;25.27;;;;;;;;;;5064692;28;20319;-69
2023/03/03 03:44:09;;;;;;;43.78;22.65;;;;;;;;;;5039166;28;20212;-69
2023/03/03 03:46:47;;;;;;;46.83;25.05;;;;;;;;;;5053255;28;20694;-70
2023/03/03 03:49:35;;;;;;;45.97;24.83;;;;;;;;;;5065980;28;20212;-69
2023/03/03 03:52:21;;;;;;;51.28;22.40;;;;;;;;;;5061133;28;20255;-69
2023/03/03 03:54:49;;;;;;;43.80;23.35;;;;;;;;;;5061040;28;20189;-69
2023/03/03 03:57:17;;;;;;;41.35;22.90;;;;;;;;;;5043854;28;20228;-69
2023/03/03 03:59:46;;;;;;;46.60;25.02;;;;;;;;;;5060159;28;20205;-69
2023/03/03 04:02:14;;;;;;;51.10;23.02;;;;;;;;;;5060054;28;20280;-70
2023/03/03 04:04:42;;;;;;;42.75;22.88;;;;;;;;;;5059224;28;20196;-69
2023/03/03 04:07:11;;;;;;;45.05;21.95;;;;;;;;;;5061006;28;20203;-69
2023/03/03 04:09:41;;;;;;;43.40;22.92;;;;;;;;;;5063645;28;20204;-69
2023/03/03 04:12:34;;;;;;;;;;;;;;;;;;;;;
2023/03/03 04:15:12;;;;;;;39.60;21.77;;;;;;;;;;5054304;28;20264;-68
2023/03/03 04:17:44;;;;;;;42.35;22.88;;;;;;;;;;5037290;28;20578;-69
2023/03/03 04:20:18;;;;;;;45.05;23.42;;;;;;;;;;5052670;28;20200;-68
2023/03/03 04:22:50;;;;;;;44.03;22.23;;;;;;;;;;5054410;28;20228;-68
2023/03/03 04:25:20;;;;;;;39.75;22.23;;;;;;;;;;5053195;28;20201;-68
2023/03/03 04:27:49;;;;;;;33.50;19.48;;;;;;;;;;5051848;28;20185;-69
2023/03/03 04:30:19;;;;;;;45.80;22.98;;;;;;;;;;5052829;28;20238;-68
2023/03/03 04:32:50;;;;;;;45.47;22.50;;;;;;;;;;5051821;28;20203;-69
2023/03/03 04:35:22;;;;;;;37.72;19.23;;;;;;;;;;5052246;28;20205;-69
2023/03/03 04:37:50;;;;;;;37.40;20.70;;;;;;;;;;5054989;28;20614;-68
2023/03/03 04:40:20;;;;;;;43.95;21.90;;;;;;;;;;5055147;28;20208;-69
2023/03/03 04:42:51;;;;;;;40.60;21.75;;;;;;;;;;5055383;28;20241;-68
2023/03/03 04:45:19;;;;;;;35.75;19.65;;;;;;;;;;5054917;28;20659;-68
2023/03/03 04:47:48;;;;;;;41.33;19.92;;;;;;;;;;5054939;28;20215;-69
2023/03/03 04:50:16;;;;;;;39.88;20.40;;;;;;;;;;5057148;28;20204;-69
2023/03/03 04:52:45;;;;;;;35.63;19.60;;;;;;;;;;5054877;28;20675;-68
2023/03/03 04:55:15;;;;;;;35.20;20.73;;;;;;;;;;5054157;28;20582;-69
2023/03/03 04:57:45;;;;;;;52.95;21.30;;;;;;;;;;5055102;28;20215;-68
2023/03/03 05:00:16;;;;;;;42.80;21.00;;;;;;;;;;5055651;28;20227;-68
2023/03/03 05:02:44;;;;;;;40.50;20.98;;;;;;;;;;5053477;28;20200;-68
2023/03/03 05:05:14;;;;;;;36.05;18.77;;;;;;;;;;5053032;28;20216;-69
2023/03/03 05:07:42;;;;;;;40.92;19.73;;;;;;;;;;5055583;28;20256;-68
2023/03/03 05:10:11;;;;;;;35.83;20.77;;;;;;;;;;5055391;28;20205;-68
2023/03/03 05:12:39;;;;;;;39.65;20.80;;;;;;;;;;5055372;28;20193;-68
2023/03/03 05:15:09;;;;;;;37.05;19.55;;;;;;;;;;5054999;28;20568;-68
2023/03/03 05:17:37;;;;;;;42.47;20.73;;;;;;;;;;5055536;28;20216;-68
2023/03/03 05:20:09;;;;;;;35.75;20.23;;;;;;;;;;5056134;28;20200;-68
2023/03/03 05:22:40;;;;;;;34.05;18.73;;;;;;;;;;5059151;28;20763;-68
2023/03/03 05:25:14;;;;;;;37.85;20.75;;;;;;;;;;5055880;28;20196;-68
2023/03/03 05:27:42;;;;;;;37.22;21.13;;;;;;;;;;5056093;28;20205;-68
2023/03/03 05:30:12;;;;;;;41.10;20.15;;;;;;;;;;5054299;28;20247;-68
2023/03/03 05:32:41;;;;;;;38.65;21.35;;;;;;;;;;5053114;28;20188;-68
2023/03/03 05:35:09;;;;;;;36.03;19.50;;;;;;;;;;5053721;28;20578;-68
2023/03/03 05:37:39;;;;;;;45.55;20.67;;;;;;;;;;5053770;28;20221;-68
2023/03/03 05:40:07;;;;;;;33.97;20.17;;;;;;;;;;5053189;28;20209;-68
2023/03/03 05:42:36;;;;;;;43.83;21.95;;;;;;;;;;5053833;28;20231;-70
2023/03/03 05:45:04;;;;;;;36.33;19.83;;;;;;;;;;5054002;28;20205;-68
2023/03/03 05:47:34;;;;;;;38.78;21.83;;;;;;;;;;5054825;28;20280;-69
2023/03/03 05:50:02;;;;;;;39.17;20.77;;;;;;;;;;5054343;28;20299;-68
2023/03/03 05:52:30;;;;;;;39.53;20.55;;;;;;;;;;5055480;28;20273;-69
2023/03/03 05:54:58;;;;;;;31.58;19.92;;;;;;;;;;5054256;28;20345;-68
2023/03/03 05:57:34;;;;;;;33.33;18.42;;;;;;;;;;5054090;28;20223;-68
2023/03/03 06:00:07;;;;;;;36.85;19.23;;;;;;;;;;5058999;28;20577;-67
2023/03/03 06:03:03;;;;;;;33.80;19.67;;;;;;;;;;5061183;28;20204;-69
2023/03/03 06:05:34;;;;;;;33.20;20.65;;;;;;;;;;5060173;28;20690;-67
2023/03/03 06:08:02;;;;;;;32.08;17.95;;;;;;;;;;5057688;28;20223;-68
2023/03/03 06:10:31;;;;;;;27.25;18.02;;;;;;;;;;5053225;28;20201;-69
2023/03/03 06:13:02;;;;;;;35.97;21.70;;;;;;;;;;5051946;28;20192;-68
2023/03/03 06:15:30;;;;;;;32.28;19.27;;;;;;;;;;5057253;28;20318;-68
2023/03/03 06:17:59;;;;;;;33.50;17.77;;;;;;;;;;5052996;28;20216;-68
2023/03/03 06:20:28;;;;;;;27.17;18.13;;;;;;;;;;5057434;28;20283;-68
2023/03/03 06:23:00;;;;;;;32.83;20.38;;;;;;;;;;5056506;28;20367;-68
2023/03/03 06:25:28;;;;;;;32.55;19.00;;;;;;;;;;5051405;28;20197;-68
2023/03/03 06:27:57;;;;;;;23.27;17.10;;;;;;;;;;5051023;28;20201;-69
2023/03/03 06:30:31;;;;;;;30.60;18.65;;;;;;;;;;4803875;28;7291515;-68
2023/03/03 06:33:07;;;;;;;34.25;20.58;;;;;;;;;;5060051;28;20342;-68
2023/03/03 06:35:45;;;;;;;36.47;21.20;;;;;;;;;;5057482;28;20283;-68
2023/03/03 06:38:13;;;;;;;39.30;20.67;;;;;;;;;;5053792;28;20222;-68
2023/03/03 06:40:42;;;;;;;35.53;20.63;;;;;;;;;;5053504;28;20200;-68
2023/03/03 06:43:10;;;;;;;38.30;21.20;;;;;;;;;;5052594;28;20212;-68
2023/03/03 06:45:38;;;;;;;33.70;18.85;;;;;;;;;;5053538;28;20215;-68
2023/03/03 06:48:08;;;;;;;38.17;21.48;;;;;;;;;;5053344;28;20209;-68
2023/03/03 06:50:38;;;;;;;42.88;22.38;;;;;;;;;;5053055;28;20215;-68
2023/03/03 06:53:11;;;;;;;35.17;20.40;;;;;;;;;;5051298;28;20728;-65
2023/03/03 06:55:39;;;;;;;43.42;27.65;;;;;;;;;;5052039;28;20813;-67
2023/03/03 06:58:11;;;;;;;37.95;24.65;;;;;;;;;;5053242;28;20223;-68
2023/03/03 07:00:42;;;;;;;40.17;23.13;;;;;;;;;;5054884;28;20238;-68
2023/03/03 07:03:15;;;;;;;39.28;22.15;;;;;;;;;;5053210;28;20211;-68
2023/03/03 07:05:44;;;;;;;34.63;21.52;;;;;;;;;;5054750;28;20223;-69
2023/03/03 07:08:15;;;;;;;35.75;21.83;;;;;;;;;;5054974;28;20258;-69
2023/03/03 07:10:43;;;;;;;32.53;21.63;;;;;;;;;;5055976;28;20196;-69
2023/03/03 07:13:19;;;;;;;36.97;21.70;;;;;;;;;;5054518;28;20280;-68
2023/03/03 07:15:48;;;;;;;38.67;24.15;;;;;;;;;;5054700;28;20196;-70
2023/03/03 07:18:28;;;;;;;41.22;23.13;;;;;;;;;;5052371;28;20224;-69
2023/03/03 07:20:57;;;;;;;37.40;21.92;;;;;;;;;;5054578;28;20180;-69
2023/03/03 07:23:26;;;;;;;43.00;24.23;;;;;;;;;;5040818;28;20216;-69
2023/03/03 07:25:54;;;;;;;39.83;23.25;;;;;;;;;;5051646;28;20196;-68
2023/03/03 07:28:24;;;;;;;42.20;23.65;;;;;;;;;;5051854;28;20201;-68
2023/03/03 07:30:52;;;;;;;42.35;24.85;;;;;;;;;;5051661;28;20239;-69
2023/03/03 07:33:24;;;;;;;41.92;24.95;;;;;;;;;;5051636;28;20200;-69
2023/03/03 07:35:55;;;;;;;45.58;25.30;;;;;;;;;;5052427;28;20206;-69
2023/03/03 07:38:31;;;;;;;42.78;25.10;;;;;;;;;;5052210;28;20209;-68
2023/03/03 07:41:00;;;;;;;41.22;24.52;;;;;;;;;;5053166;28;20647;-68
2023/03/03 07:43:34;;;;;;;43.38;24.77;;;;;;;;;;5052550;28;20732;-68
2023/03/03 07:46:07;;;;;;;47.80;26.27;;;;;;;;;;5053530;28;20193;-68
2023/03/03 07:48:36;;;;;;;46.42;27.67;;;;;;;;;;5053752;28;20181;-68
2023/03/03 07:51:07;;;;;;;46.25;25.90;;;;;;;;;;5053279;28;20291;-67
2023/03/03 07:53:36;;;;;;;44.90;25.30;;;;;;;;;;5052667;28;20242;-67
2023/03/03 07:56:12;;;;;;;55.72;27.73;;;;;;;;;;5051379;28;20208;-68
2023/03/03 07:58:41;;;;;;;42.35;25.52;;;;;;;;;;5051715;28;20212;-67
2023/03/03 08:01:28;;;;;;;47.05;26.58;;;;;;;;;;5050584;28;20205;-67
2023/03/03 08:03:56;;;;;;;39.15;23.15;;;;;;;;;;5050404;28;20192;-68
2023/03/03 08:06:32;;;;;;;48.30;26.60;;;;;;;;;;5051240;28;20208;-68
2023/03/03 08:09:02;;;;;;;52.47;26.65;;;;;;;;;;5051921;28;20657;-68
2023/03/03 08:11:30;;;;;;;44.88;23.50;;;;;;;;;;5054286;28;20629;-69
2023/03/03 08:13:59;;;;;;;41.20;25.52;;;;;;;;;;5051733;28;20201;-69
2023/03/03 08:16:35;;;;;;;44.13;24.10;;;;;;;;;;5052810;28;20529;-69
2023/03/03 08:19:05;;;;;;;39.55;23.92;;;;;;;;;;5033942;28;20201;-69
2023/03/03 08:21:36;;;;;;;51.60;27.75;;;;;;;;;;5048483;28;20559;-68
2023/03/03 08:24:04;;;;;;;45.58;26.42;;;;;;;;;;5053063;28;20699;-68
2023/03/03 08:26:32;;;;;;;50.08;29.10;;;;;;;;;;5052480;28;20205;-67
2023/03/03 08:29:01;;;;;;;48.45;27.67;;;;;;;;;;5052637;28;20197;-68
2023/03/03 08:31:29;;;;;;;44.85;25.67;;;;;;;;;;5051031;28;20341;-66
2023/03/03 08:33:57;;;;;;;44.67;25.48;;;;;;;;;;5052549;28;20284;-66
2023/03/03 08:36:26;;;;;;;53.92;24.65;;;;;;;;;;5051576;28;20196;-66
2023/03/03 08:38:55;;;;;;;38.70;23.88;;;;;;;;;;5051808;28;20225;-66
2023/03/03 08:41:23;;;;;;;37.80;23.15;;;;;;;;;;5050855;28;20207;-67
2023/03/03 08:43:52;;;;;;;36.90;22.98;;;;;;;;;;5051475;28;20261;-67
2023/03/03 08:46:20;;;;;;;39.92;24.05;;;;;;;;;;5049413;28;20199;-67
2023/03/03 08:48:48;;;;;;;34.92;23.48;;;;;;;;;;5051657;28;20291;-68
2023/03/03 08:51:16;;;;;;;36.88;24.48;;;;;;;;;;5050546;28;20210;-68
2023/03/03 08:53:44;;;;;;;38.03;24.00;;;;;;;;;;5050614;28;20205;-68
2023/03/03 08:56:14;;;;;;;36.33;23.10;;;;;;;;;;5051382;28;20197;-69
2023/03/03 08:58:46;;;;;;;32.20;21.15;;;;;;;;;;5050173;28;20213;-69
2023/03/03 09:01:15;;;;;;;48.63;27.63;;;;;;;;;;5050261;28;20226;-67
2023/03/03 09:03:44;;;;;;;37.33;22.15;;;;;;;;;;5051153;28;20197;-67
2023/03/03 09:06:12;;;;;;;39.55;21.65;;;;;;;;;;5050706;28;20196;-68
2023/03/03 09:08:40;;;;;;;41.72;23.05;;;;;;;;;;5050829;28;20235;-67
2023/03/03 09:11:11;;;;;;;35.30;20.10;;;;;;;;;;5051652;28;20207;-66
2023/03/03 09:13:40;;;;;;;40.13;21.95;;;;;;;;;;5051257;28;20215;-69
2023/03/03 09:16:12;;;;;;;37.08;21.90;;;;;;;;;;5050549;28;20209;-68
2023/03/03 09:18:41;;;;;;;37.72;22.48;;;;;;;;;;5048227;28;20216;-68
2023/03/03 09:21:22;;;;;;;36.95;22.35;;;;;;;;;;5052182;28;20208;-68
2023/03/03 09:23:54;;;;;;;32.78;20.90;;;;;;;;;;5054816;28;20602;-67
2023/03/03 09:26:26;;;;;;;39.25;23.77;;;;;;;;;;5054032;28;20189;-67
2023/03/03 09:28:59;;;;;;;37.28;23.55;;;;;;;;;;5054147;28;20536;-67
2023/03/03 09:31:28;;;;;;;40.85;24.30;;;;;;;;;;5054113;28;20807;-67
2023/03/03 09:33:58;;;;;;;38.65;26.48;;;;;;;;;;5054788;28;20197;-67
2023/03/03 09:36:27;;;;;;;32.28;22.83;;;;;;;;;;5054386;28;20197;-68
2023/03/03 09:38:56;;;;;;;38.70;23.40;;;;;;;;;;5054035;28;20624;-68
2023/03/03 09:41:29;;;;;;;35.95;21.75;;;;;;;;;;5054590;28;20210;-67
2023/03/03 09:44:08;;;;;;;41.88;24.52;;;;;;;;;;5054278;28;20203;-66
2023/03/03 09:46:40;;;;;;;44.35;22.88;;;;;;;;;;5054336;28;20207;-67
2023/03/03 09:49:12;;;;;;;37.72;23.80;;;;;;;;;;5053784;28;20189;-68
2023/03/03 09:51:47;;;;;;;34.20;21.60;;;;;;;;;;5054046;28;20192;-68
2023/03/03 09:54:23;;;;;;;40.33;22.85;;;;;;;;;;5053118;28;20192;-69
2023/03/03 09:56:54;;;;;;;35.45;20.23;;;;;;;;;;5052660;28;20197;-69
2023/03/03 09:59:28;;;;;;;36.83;23.38;;;;;;;;;;5053326;28;20213;-68
2023/03/03 10:02:04;;;;;;;38.88;24.52;;;;;;;;;;5052831;28;20192;-69
2023/03/03 10:04:44;;;;;;;38.95;25.02;;;;;;;;;;5053072;28;20208;-69
2023/03/03 10:07:26;;;;;;;41.60;24.30;;;;;;;;;;5053628;28;20553;-68
2023/03/03 10:10:16;;;;;;;38.53;21.90;;;;;;;;;;5053685;28;20185;-68
2023/03/03 10:12:48;;;;;;;32.95;22.05;;;;;;;;;;5047431;28;20586;-69
2023/03/03 10:15:22;;;;;;;36.53;23.33;;;;;;;;;;5053385;28;20201;-68
2023/03/03 10:17:51;;;;;;;35.58;23.23;;;;;;;;;;5053992;28;20295;-68
2023/03/03 10:20:25;;;;;;;33.88;22.02;;;;;;;;;;5047814;28;20628;-69
2023/03/03 10:22:55;;;;;;;35.17;23.05;;;;;;;;;;5054066;28;20644;-69
2023/03/03 10:25:29;;;;;;;38.33;24.52;;;;;;;;;;5052274;28;20188;-70
2023/03/03 10:28:14;;;;;;;35.78;22.85;;;;;;;;;;5053739;28;20610;-70
2023/03/03 10:30:52;;;;;;;35.85;23.50;;;;;;;;;;5052049;28;20774;-69
2023/03/03 10:33:25;;;;;;;39.10;24.20;;;;;;;;;;5052030;28;20223;-70
2023/03/03 10:36:03;;;;;;;40.22;24.38;;;;;;;;;;5052952;28;20191;-69
2023/03/03 10:38:50;;;;;;;36.50;22.95;;;;;;;;;;5033624;28;20670;-67
2023/03/03 10:41:29;;;;;;;40.55;23.83;;;;;;;;;;5040143;28;20204;-66
2023/03/03 10:44:18;;;;;;;38.03;23.83;;;;;;;;;;5051073;28;20201;-67
2023/03/03 10:46:53;;;;;;;31.55;21.83;;;;;;;;;;5051641;28;20211;-66
2023/03/03 10:49:27;;;;;;;39.30;24.55;;;;;;;;;;5052540;28;20184;-66
2023/03/03 10:52:16;;;;;;;36.72;23.73;;;;;;;;;;5052165;28;20247;-67
2023/03/03 10:54:51;;;;;;;35.63;23.80;;;;;;;;;;5047098;28;20205;-66
2023/03/03 10:57:25;;;;;;;32.35;20.73;;;;;;;;;;5049596;28;20191;-67
2023/03/03 11:00:08;;;;;;;37.55;23.92;;;;;;;;;;5051596;28;20215;-66
2023/03/03 11:02:41;;;;;;;33.10;22.25;;;;;;;;;;5049879;28;20196;-66
2023/03/03 11:05:17;;;;;;;30.40;20.73;;;;;;;;;;5049601;28;20206;-67
2023/03/03 11:07:48;;;;;;;37.33;22.77;;;;;;;;;;5050455;28;20188;-67
2023/03/03 11:10:22;;;;;;;34.38;22.55;;;;;;;;;;5051370;28;20196;-67
2023/03/03 11:12:56;;;;;;;34.05;22.88;;;;;;;;;;5052117;28;20670;-67
2023/03/03 11:15:31;;;;;;;35.58;25.50;;;;;;;;;;5052521;28;20199;-67
2023/03/03 11:18:10;;;;;;;37.90;24.08;;;;;;;;;;5052447;28;20565;-67
2023/03/03 11:20:41;;;;;;;32.60;22.17;;;;;;;;;;5052526;28;20546;-67
2023/03/03 11:23:22;;;;;;;35.03;25.80;;;;;;;;;;5054376;28;20261;-67
2023/03/03 11:25:54;;;;;;;36.28;24.67;;;;;;;;;;5053192;28;20173;-67
2023/03/03 11:28:28;;;;;;;37.08;25.38;;;;;;;;;;5053701;28;20193;-67
2023/03/03 11:31:08;;;;;;;39.67;26.42;;;;;;;;;;5054062;28;20236;-67
2023/03/03 11:33:40;;;;;;;32.55;23.48;;;;;;;;;;5052745;28;20197;-67
2023/03/03 11:36:11;;;;;;;33.10;25.10;;;;;;;;;;5051740;28;20205;-67
2023/03/03 11:38:45;;;;;;;39.63;26.95;;;;;;;;;;5051731;28;20603;-67
2023/03/03 11:41:17;;;;;;;43.97;29.88;;;;;;;;;;5052258;28;20242;-67
2023/03/03 11:43:47;;;;;;;38.03;24.88;;;;;;;;;;5051263;28;20192;-67
2023/03/03 11:46:17;;;;;;;33.53;24.98;;;;;;;;;;5052175;28;20208;-67
2023/03/03 11:48:52;;;;;;;34.13;25.45;;;;;;;;;;5050010;28;20647;-67
2023/03/03 11:51:22;;;;;;;38.30;26.85;;;;;;;;;;5052813;28;20207;-67
2023/03/03 11:53:58;;;;;;;36.10;25.57;;;;;;;;;;5054105;28;20200;-67
2023/03/03 11:56:28;;;;;;;36.80;25.60;;;;;;;;;;5053549;28;20603;-67
2023/03/03 11:59:04;;;;;;;32.00;23.70;;;;;;;;;;5053087;28;21014;-67
2023/03/03 12:01:37;;;;;;;33.80;26.60;;;;;;;;;;5052004;28;20650;-67
2023/03/03 12:04:11;;;;;;;39.53;27.20;;;;;;;;;;5050936;28;20603;-67
2023/03/03 12:06:45;;;;;;;38.00;26.83;;;;;;;;;;5051555;28;21146;-67
2023/03/03 12:09:23;;;;;;;32.90;26.23;;;;;;;;;;5051597;28;20592;-67
2023/03/03 12:11:54;;;;;;;39.00;27.67;;;;;;;;;;5050086;28;20621;-67
2023/03/03 12:14:28;;;;;;;46.33;27.07;;;;;;;;;;5046918;28;20661;-67
2023/03/03 12:16:57;;;;;;;37.43;27.63;;;;;;;;;;5048240;28;20722;-67
2023/03/03 12:19:33;;;;;;;36.67;27.83;;;;;;;;;;5049016;28;21136;-67
2023/03/03 12:22:18;;;;;;;38.90;28.80;;;;;;;;;;5049582;28;20627;-67
2023/03/03 12:24:59;;;;;;;43.00;28.77;;;;;;;;;;5048026;28;20592;-67
2023/03/03 12:27:31;;;;;;;35.50;26.57;;;;;;;;;;5047963;28;20974;-67
2023/03/03 12:30:05;;;;;;;38.80;27.00;;;;;;;;;;5046508;28;20615;-67
2023/03/03 12:32:47;;;;;;;38.20;26.63;;;;;;;;;;5050844;28;20603;-67
2023/03/03 12:35:21;;;;;;;37.97;27.60;;;;;;;;;;5048755;28;21128;-68
2023/03/03 12:37:52;;;;;;;40.87;26.83;;;;;;;;;;5048239;28;20623;-68
2023/03/03 12:40:21;;;;;;;39.57;27.50;;;;;;;;;;5050553;28;21010;-67
2023/03/03 12:43:05;;;;;;;37.90;27.07;;;;;;;;;;5050550;28;20596;-67
2023/03/03 12:45:38;;;;;;;35.83;27.20;;;;;;;;;;5050231;28;20578;-67
2023/03/03 12:48:09;;;;;;;36.17;24.93;;;;;;;;;;5051301;28;20603;-68
2023/03/03 12:50:46;;;;;;;43.53;28.70;;;;;;;;;;5050656;28;21099;-67
2023/03/03 12:53:22;;;;;;;33.50;24.73;;;;;;;;;;5048371;28;20597;-67
2023/03/03 12:55:53;;;;;;;35.37;27.13;;;;;;;;;;5052748;28;21238;-67
2023/03/03 12:58:29;;;;;;;33.17;26.60;;;;;;;;;;5054254;28;20604;-67
2023/03/03 13:01:05;;;;;;;34.30;26.93;;;;;;;;;;5054123;28;20964;-68
2023/03/03 13:03:37;;;;;;;34.77;24.83;;;;;;;;;;5054291;28;20671;-68
2023/03/03 13:06:12;;;;;;;34.40;27.57;;;;;;;;;;5053606;28;21223;-68
2023/03/03 13:08:56;;;;;;;35.70;26.73;;;;;;;;;;5042656;28;20612;-67
2023/03/03 13:11:35;;;;;;;33.73;26.53;;;;;;;;;;5056064;28;20980;-67
2023/03/03 13:14:08;;;;;;;33.57;26.13;;;;;;;;;;5055093;28;20936;-67
2023/03/03 13:16:39;;;;;;;35.07;26.30;;;;;;;;;;5051174;28;20622;-67
2023/03/03 13:19:10;;;;;;;34.97;28.03;;;;;;;;;;5055088;28;21120;-67
2023/03/03 13:21:42;;;;;;;44.90;28.13;;;;;;;;;;5051268;28;20686;-67
2023/03/03 13:24:16;;;;;;;35.73;26.27;;;;;;;;;;5042451;28;20658;-67
2023/03/03 13:26:48;;;;;;;43.10;28.23;;;;;;;;;;5044068;28;21185;-68
2023/03/03 13:29:23;;;;;;;36.60;27.30;;;;;;;;;;5054958;28;20606;-68
2023/03/03 13:31:55;;;;;;;38.03;27.30;;;;;;;;;;5055023;28;20669;-67
2023/03/03 13:34:33;;;;;;;32.50;25.80;;;;;;;;;;5056194;28;20599;-68
2023/03/03 13:37:06;;;;;;;32.53;26.10;;;;;;;;;;5055463;28;20654;-67
2023/03/03 13:39:36;;;;;;;36.30;26.77;;;;;;;;;;5058829;28;20670;-68
2023/03/03 13:42:05;;;;;;;32.73;26.80;;;;;;;;;;5058038;28;20650;-69
2023/03/03 13:44:36;;;;;;;33.47;24.90;;;;;;;;;;5057531;28;20717;-69
2023/03/03 13:47:11;;;;;;;34.67;27.87;;;;;;;;;;5059941;28;20682;-68
2023/03/03 13:49:45;;;;;;;36.67;26.90;;;;;;;;;;5061663;28;20686;-68
2023/03/03 13:52:21;;;;;;;33.90;25.50;;;;;;;;;;5042666;28;20638;-68
2023/03/03 13:54:54;;;;;;;37.27;28.40;;;;;;;;;;5057790;28;20605;-68
2023/03/03 13:57:42;;;;;;;50.23;26.63;;;;;;;;;;5045873;28;20649;-68
2023/03/03 14:00:27;;;;;;;40.47;28.30;;;;;;;;;;5056644;28;20705;-68
2023/03/03 14:03:42;;;;;;;35.10;26.23;;;;;;;;;;5045760;28;20784;-68
2023/03/03 14:06:14;;;;;;;27.43;23.47;;;;;;;;;;5050456;28;20646;-68
2023/03/03 14:08:55;;;;;;;34.67;24.90;;;;;;;;;;5057470;28;20690;-67
2023/03/03 14:11:25;;;;;;;31.63;25.30;;;;;;;;;;5058723;28;21086;-66
2023/03/03 14:13:57;;;;;;;34.73;28.60;;;;;;;;;;5054044;28;20611;-67
2023/03/03 14:16:34;;;;;;;32.43;25.60;;;;;;;;;;5056899;28;20743;-68
2023/03/03 14:19:06;;;;;;;32.40;25.57;;;;;;;;;;5059313;28;20677;-68
2023/03/03 14:21:37;;;;;;;34.90;27.43;;;;;;;;;;5058725;28;20606;-67
2023/03/03 14:24:09;;;;;;;32.90;26.03;;;;;;;;;;5057792;28;21058;-67
2023/03/03 14:26:46;;;;;;;34.70;24.83;;;;;;;;;;5057566;28;20692;-68
2023/03/03 14:29:20;;;;;;;34.57;26.77;;;;;;;;;;5056591;28;20635;-68
2023/03/03 14:31:48;;;;;;;36.23;27.27;;;;;;;;;;5056244;28;20658;-68
2023/03/03 14:34:31;;;;;;;33.97;24.90;;;;;;;;;;5055463;28;20631;-68
2023/03/03 14:37:09;;;;;;;32.37;24.60;;;;;;;;;;5050624;28;20684;-68
2023/03/03 14:39:42;;;;;;;33.93;25.00;;;;;;;;;;5054194;28;20682;-68
2023/03/03 14:42:34;;;;;;;32.53;26.77;;;;;;;;;;5061239;28;20658;-68
2023/03/03 14:45:19;;;;;;;30.57;25.40;;;;;;;;;;5055498;28;20704;-69
2023/03/03 14:47:48;;;;;;;33.27;27.40;;;;;;;;;;5054745;28;20679;-68
2023/03/03 14:50:33;;;;;;;29.83;24.63;;;;;;;;;;5054636;28;20694;-69
2023/03/03 14:53:10;;;;;;;30.93;25.10;;;;;;;;;;5051935;28;20722;-68
2023/03/03 14:55:46;;;;;;;32.70;25.80;;;;;;;;;;5057088;28;20772;-68
2023/03/03 14:58:31;;;;;;;36.90;27.07;;;;;;;;;;5051184;28;20672;-68
2023/03/03 15:01:10;;;;;;;35.37;26.60;;;;;;;;;;5052760;28;21363;-69
2023/03/03 15:03:38;;;;;;;32.40;26.00;;;;;;;;;;5052549;28;21255;-68
2023/03/03 15:06:11;;;;;;;34.37;25.37;;;;;;;;;;5054995;28;20722;-68
2023/03/03 15:08:41;;;;;;;35.63;26.70;;;;;;;;;;5053718;28;20695;-67
2023/03/03 15:11:14;;;;;;;39.10;26.80;;;;;;;;;;5055006;28;20623;-68
2023/03/03 15:13:43;;;;;;;31.30;25.33;;;;;;;;;;5053449;28;21287;-67